Portada
METAR-TAF:

METAR-TAF

Aeropuertos :

Brive-la-Gaillarde, Francia

Souillac

latitud: 45-02-28N, longitud: 001-28-59E, altitud: 311 m

Observación

El informe se hizo hace 17 minutos, a las 09:00 UTC
Viento 7 kt del sur, variando entre sureste y suroeste
Temperatura 17°C
Humedad 48%
Presión 1016 hPa
Visibilidad 10 km o más
sin nubes por debajo de 1500 m y sin presencia de cumulonimbus.

METAR: LFSL 240900Z AUTO 18007KT 140V230 CAVOK 17/06 Q1016 NOSIG

Hora: 11:17 (09:17 UTC)

Pronóstico

El informe se hizo hace 1 hora y 17 minutos, a las 08:00 UTC
Pronóstico válido del 24 a las 09 UTC al 24 a las 18 UTC
Viento 6 kt del sur-sureste
Visibilidad 10 km o más
sin nubes por debajo de 1500 m y sin presencia de cumulonimbus.

TAF: LFSL 240800Z 2409/2418 16006KT CAVOK

Observaciones y pronósticos meteorológicos de más de 4000 aeropuertos (mensajes METAR y TAF).

Los puntos amarillos y rojos representan las estaciones disponibles.

Ponga el ratón en el punto deseado para ver el nombre de la estación.

Haga clic para ver las observaciones y los pronósticos meteorológicos.

Para cambiar el mapa : haga clic en los botones verdes con una cruz de color negro para hacer un zoom, en el botón verde con un guión para alejar o en las flechas verdes para mapas adyacentes.


METAR-TAF: